Time;durP1;ratioP1;P1;durP2;ratioP2;P2;SDS_P1;SDS_P2;PMS_P1;PMS_P2;Temp;Humidity;BMP_temperature;BMP_pressure;BME280_temperature;BME280_humidity;BME280_pressure;Samples;Min_cycle;Max_cycle;Signal;HPM_P1;HPM_P2
2023/10/19 00:00:59;;;;;;;14.20;9.20;;;13.00;99.90;;;;;;5030499;28;20468;-71
2023/10/19 00:03:44;;;;;;;17.27;9.60;;;13.10;99.90;;;;;;5032064;28;20914;-71
2023/10/19 00:06:30;;;;;;;14.53;9.93;;;13.00;99.90;;;;;;5028773;28;20644;-71
2023/10/19 00:09:16;;;;;;;14.83;11.70;;;13.10;99.90;;;;;;5032881;28;20499;-71
2023/10/19 00:12:05;;;;;;;11.60;9.40;;;13.00;99.90;;;;;;5029765;28;20493;-71
2023/10/19 00:14:49;;;;;;;15.67;12.27;;;13.00;99.90;;;;;;5030597;28;20429;-71
2023/10/19 00:17:35;;;;;;;18.67;12.97;;;13.00;99.90;;;;;;5032044;28;20453;-71
2023/10/19 00:20:37;;;;;;;19.93;14.40;;;13.00;99.90;;;;;;5027099;28;20522;-71
2023/10/19 00:23:31;;;;;;;16.97;13.90;;;13.00;99.90;;;;;;5031928;28;20942;-71
2023/10/19 00:26:19;;;;;;;23.83;15.50;;;13.00;99.90;;;;;;5032496;28;20458;-71
2023/10/19 00:29:18;;;;;;;20.10;16.17;;;13.10;99.90;;;;;;5027031;28;20407;-71
2023/10/19 00:32:06;;;;;;;27.50;15.53;;;13.10;99.90;;;;;;5030986;28;20421;-71
2023/10/19 00:34:52;;;;;;;21.03;15.23;;;13.10;99.90;;;;;;5031461;28;20432;-71
2023/10/19 00:37:42;;;;;;;20.17;15.83;;;13.10;99.90;;;;;;5031350;28;20485;-71
2023/10/19 00:40:35;;;;;;;18.53;14.40;;;13.10;99.90;;;;;;5027945;28;20399;-71
2023/10/19 00:43:32;;;;;;;16.93;13.27;;;13.10;99.90;;;;;;5026321;28;20825;-71
2023/10/19 00:46:31;;;;;;;18.70;14.07;;;13.20;99.90;;;;;;5034001;28;20455;-71
2023/10/19 00:49:17;;;;;;;16.43;13.17;;;13.20;99.90;;;;;;5031854;28;20505;-71
2023/10/19 00:52:04;;;;;;;17.40;13.60;;;13.20;99.90;;;;;;5031797;28;20933;-72
2023/10/19 00:54:53;;;;;;;17.07;14.10;;;13.20;99.90;;;;;;5031106;28;20440;-71
2023/10/19 00:57:42;;;;;;;16.17;12.50;;;13.20;99.90;;;;;;5030618;28;20437;-72
2023/10/19 01:00:34;;;;;;;16.70;13.00;;;13.20;99.90;;;;;;5034421;28;20494;-72
2023/10/19 01:03:21;;;;;;;20.97;14.10;;;13.20;99.90;;;;;;5021171;28;20449;-71
2023/10/19 01:06:09;;;;;;;16.47;12.40;;;13.10;99.90;;;;;;5034110;28;20463;-71
2023/10/19 01:08:55;;;;;;;14.80;12.00;;;13.20;99.90;;;;;;5031840;28;20511;-71
2023/10/19 01:11:41;;;;;;;18.87;13.03;;;13.10;99.90;;;;;;5030735;28;20974;-70
2023/10/19 01:14:27;;;;;;;18.60;12.93;;;13.10;99.90;;;;;;5026299;28;20408;-72
2023/10/19 01:17:13;;;;;;;15.13;12.30;;;13.10;99.90;;;;;;5030879;28;20505;-71
2023/10/19 01:20:02;;;;;;;17.67;13.63;;;13.10;99.90;;;;;;5025773;28;20407;-72
2023/10/19 01:23:20;;;;;;;16.43;12.97;;;13.10;99.90;;;;;;5033729;28;20485;-70
2023/10/19 01:26:08;;;;;;;18.27;10.70;;;13.10;99.90;;;;;;5032806;28;20543;-71
2023/10/19 01:29:00;;;;;;;16.70;12.07;;;13.20;99.90;;;;;;5030696;28;20775;-71
2023/10/19 01:31:56;;;;;;;16.37;11.47;;;13.20;99.90;;;;;;5030831;28;20788;-72
2023/10/19 01:34:41;;;;;;;13.10;10.27;;;13.20;99.90;;;;;;5030716;28;20437;-70
2023/10/19 01:37:26;;;;;;;12.37;9.73;;;13.20;99.90;;;;;;5025751;28;20542;-70
2023/10/19 01:40:20;;;;;;;14.43;10.90;;;13.20;99.90;;;;;;5030390;28;20395;-71
2023/10/19 01:43:06;;;;;;;12.80;10.67;;;13.20;99.90;;;;;;5029704;28;20564;-71
2023/10/19 01:45:54;;;;;;;11.90;7.60;;;13.30;99.90;;;;;;5030061;28;20816;-72
2023/10/19 01:48:41;;;;;;;16.47;7.90;;;13.40;99.90;;;;;;5030459;28;20425;-71
2023/10/19 01:51:28;;;;;;;12.00;8.70;;;13.70;99.90;;;;;;5031207;28;20791;-71
2023/10/19 01:54:14;;;;;;;9.47;8.47;;;13.80;99.90;;;;;;5027749;28;20430;-71
2023/10/19 01:57:03;;;;;;;13.33;8.40;;;13.80;99.90;;;;;;5030186;28;20455;-72
2023/10/19 01:59:49;;;;;;;14.90;8.93;;;13.90;99.90;;;;;;5029051;28;20406;-71
2023/10/19 02:02:35;;;;;;;16.60;9.17;;;13.90;99.90;;;;;;5026352;28;20607;-71
2023/10/19 02:05:22;;;;;;;11.93;8.90;;;13.90;99.90;;;;;;5030579;28;20394;-71
2023/10/19 02:08:07;;;;;;;20.40;10.80;;;13.90;99.90;;;;;;5029861;28;20449;-70
2023/10/19 02:10:52;;;;;;;14.70;9.40;;;14.00;99.90;;;;;;5027542;28;20555;-72
2023/10/19 02:13:40;;;;;;;16.23;10.27;;;13.90;99.90;;;;;;5023102;28;20436;-72
2023/10/19 02:16:25;;;;;;;13.43;9.60;;;14.00;99.90;;;;;;5037693;28;20828;-70
2023/10/19 02:19:11;;;;;;;14.57;9.90;;;14.00;99.90;;;;;;5034488;28;20985;-71
2023/10/19 02:21:59;;;;;;;11.80;9.13;;;14.00;99.90;;;;;;5033059;28;20476;-70
2023/10/19 02:24:44;;;;;;;13.73;9.87;;;14.00;99.90;;;;;;5031406;28;20904;-72
2023/10/19 02:27:29;;;;;;;15.50;10.37;;;14.10;99.90;;;;;;5030456;28;20443;-70
2023/10/19 02:30:17;;;;;;;15.00;10.60;;;14.10;99.90;;;;;;5034576;28;20417;-71
2023/10/19 02:33:05;;;;;;;13.57;9.67;;;14.10;99.90;;;;;;5032503;28;20999;-71
2023/10/19 02:35:51;;;;;;;14.57;9.77;;;14.10;99.90;;;;;;5033781;28;20702;-71
2023/10/19 02:38:37;;;;;;;12.50;9.43;;;14.20;99.90;;;;;;5025726;28;20399;-71
2023/10/19 02:41:23;;;;;;;12.30;8.13;;;14.20;99.90;;;;;;5027924;28;20430;-71
2023/10/19 02:44:09;;;;;;;18.10;10.93;;;14.20;99.90;;;;;;5037182;28;20433;-71
2023/10/19 02:46:59;;;;;;;16.30;10.50;;;14.30;99.90;;;;;;5035272;28;20429;-72
2023/10/19 02:49:45;;;;;;;11.20;9.50;;;14.30;99.90;;;;;;5036418;28;20448;-71
2023/10/19 02:52:31;;;;;;;14.50;9.97;;;14.30;99.90;;;;;;5031587;28;20440;-71
2023/10/19 02:55:16;;;;;;;15.73;9.30;;;14.30;99.90;;;;;;5032449;28;20799;-71
2023/10/19 02:58:05;;;;;;;12.80;8.57;;;14.30;99.90;;;;;;5033846;28;20531;-71
2023/10/19 03:00:51;;;;;;;15.70;9.60;;;14.30;99.90;;;;;;5031986;28;20436;-71
2023/10/19 03:03:38;;;;;;;13.43;8.70;;;14.30;99.90;;;;;;5028225;28;21018;-72
2023/10/19 03:06:26;;;;;;;15.50;9.50;;;14.40;99.90;;;;;;5037232;28;21064;-70
2023/10/19 03:09:13;;;;;;;15.77;9.47;;;14.40;99.90;;;;;;5034294;28;20465;-71
2023/10/19 03:12:03;;;;;;;13.50;10.10;;;14.40;99.90;;;;;;5031581;28;20418;-72
2023/10/19 03:14:47;;;;;;;20.83;9.60;;;14.40;99.90;;;;;;5030791;28;20438;-71
2023/10/19 03:17:33;;;;;;;13.67;9.10;;;14.50;99.90;;;;;;5035109;28;20446;-70
2023/10/19 03:20:23;;;;;;;14.07;10.07;;;14.50;99.90;;;;;;5030893;28;20424;-71
2023/10/19 03:23:10;;;;;;;13.40;8.70;;;14.40;99.90;;;;;;5032704;28;20496;-71
2023/10/19 03:28:56;;;;;;;16.47;9.50;;;14.40;99.90;;;;;;5034774;28;20766;-71
2023/10/19 03:31:44;;;;;;;15.67;10.60;;;14.50;99.90;;;;;;5035227;28;20411;-71
2023/10/19 03:34:32;;;;;;;18.33;10.30;;;14.50;99.90;;;;;;5027766;28;20872;-71
2023/10/19 03:37:21;;;;;;;14.37;9.57;;;14.40;99.90;;;;;;5031798;28;20427;-71
2023/10/19 03:40:14;;;;;;;16.30;10.53;;;14.40;99.90;;;;;;5031355;28;20559;-71
2023/10/19 03:43:05;;;;;;;16.07;10.80;;;14.40;99.90;;;;;;5032739;28;20984;-71
2023/10/19 03:45:52;;;;;;;16.03;10.90;;;14.40;99.90;;;;;;5032300;28;20428;-71
2023/10/19 03:48:38;;;;;;;14.10;10.40;;;14.40;99.90;;;;;;5032528;28;20444;-71
2023/10/19 03:51:26;;;;;;;13.90;10.77;;;14.40;99.90;;;;;;5027529;28;20853;-70
2023/10/19 03:54:21;;;;;;;16.40;10.27;;;14.40;99.90;;;;;;5031491;28;20436;-70
2023/10/19 03:57:11;;;;;;;13.80;9.40;;;14.40;99.90;;;;;;5032974;28;20442;-69
2023/10/19 03:59:57;;;;;;;14.17;9.77;;;14.40;99.90;;;;;;5034797;28;20441;-70
2023/10/19 04:02:43;;;;;;;11.70;9.37;;;14.40;99.90;;;;;;5032093;28;20594;-69
2023/10/19 04:05:30;;;;;;;12.23;9.83;;;14.40;99.90;;;;;;5031037;28;20444;-70
2023/10/19 04:08:20;;;;;;;11.67;9.20;;;14.40;99.90;;;;;;5038717;28;20423;-69
2023/10/19 04:11:11;;;;;;;12.60;9.40;;;14.40;99.90;;;;;;5034188;28;20424;-69
2023/10/19 04:13:59;;;;;;;12.23;9.30;;;14.50;99.90;;;;;;5036183;28;20418;-69
2023/10/19 04:16:45;;;;;;;12.93;8.53;;;14.50;99.90;;;;;;5032160;28;20451;-70
2023/10/19 04:19:32;;;;;;;12.43;7.87;;;14.50;99.90;;;;;;5026903;28;20903;-69
2023/10/19 04:22:23;;;;;;;11.07;7.77;;;14.50;99.90;;;;;;5033940;28;21099;-70
2023/10/19 04:25:12;;;;;;;10.70;8.40;;;14.50;99.90;;;;;;5031437;28;20486;-69
2023/10/19 04:28:00;;;;;;;13.70;9.20;;;14.40;99.90;;;;;;5025148;28;20431;-70
2023/10/19 04:30:48;;;;;;;14.00;9.97;;;14.30;99.90;;;;;;5032310;28;20428;-69
2023/10/19 04:33:34;;;;;;;12.90;10.10;;;14.30;99.90;;;;;;5028267;28;20453;-70
2023/10/19 04:36:22;;;;;;;16.20;10.67;;;14.20;99.90;;;;;;5029235;28;20619;-70
2023/10/19 04:39:11;;;;;;;13.37;9.80;;;14.20;99.90;;;;;;5026593;28;20788;-70
2023/10/19 04:41:57;;;;;;;20.37;9.90;;;14.10;99.90;;;;;;5030924;28;20911;-70
2023/10/19 04:44:45;;;;;;;16.13;10.50;;;14.10;99.90;;;;;;5031487;28;20427;-70
2023/10/19 04:47:31;;;;;;;13.70;9.40;;;14.10;99.90;;;;;;5020795;28;20450;-69
2023/10/19 04:50:16;;;;;;;14.67;9.43;;;14.10;99.90;;;;;;5027313;28;20440;-69
2023/10/19 04:53:02;;;;;;;11.90;8.97;;;14.10;99.90;;;;;;5029764;28;20444;-70
2023/10/19 04:55:48;;;;;;;11.07;8.73;;;14.00;99.90;;;;;;5025957;28;20824;-70
2023/10/19 04:58:35;;;;;;;10.67;9.33;;;14.00;99.90;;;;;;5029802;28;20423;-70
2023/10/19 05:01:22;;;;;;;13.27;8.90;;;14.00;99.90;;;;;;5024873;28;20544;-70
2023/10/19 05:04:07;;;;;;;12.23;7.80;;;13.90;99.90;;;;;;5036891;28;20443;-70
2023/10/19 05:06:53;;;;;;;14.20;8.40;;;13.80;99.90;;;;;;5030081;28;20484;-69
2023/10/19 05:09:39;;;;;;;13.03;7.53;;;13.80;99.90;;;;;;5031398;28;20428;-70
2023/10/19 05:12:25;;;;;;;12.13;8.23;;;13.80;99.90;;;;;;5027491;28;20423;-69
2023/10/19 05:15:11;;;;;;;9.43;7.27;;;13.80;99.90;;;;;;5035529;28;20447;-70
2023/10/19 05:17:57;;;;;;;10.63;7.50;;;13.80;99.90;;;;;;5024657;28;20412;-70
2023/10/19 05:20:43;;;;;;;8.80;7.13;;;13.80;99.90;;;;;;5029982;28;20507;-70
2023/10/19 05:23:30;;;;;;;9.13;7.87;;;13.70;99.90;;;;;;5042889;28;20479;-69
2023/10/19 05:26:15;;;;;;;10.20;7.10;;;13.70;99.90;;;;;;5030393;28;20489;-70
2023/10/19 05:29:01;;;;;;;10.10;7.03;;;13.70;99.90;;;;;;5036437;28;20419;-69
2023/10/19 05:31:46;;;;;;;10.73;6.80;;;13.70;99.90;;;;;;5030640;28;20426;-70
2023/10/19 05:34:35;;;;;;;9.37;6.20;;;13.60;99.90;;;;;;5020919;28;20571;-70
2023/10/19 05:37:20;;;;;;;8.93;6.73;;;13.70;99.90;;;;;;5023724;28;20809;-70
2023/10/19 05:40:12;;;;;;;12.60;7.43;;;13.70;99.90;;;;;;5030335;28;20442;-69
2023/10/19 05:43:00;;;;;;;7.63;5.90;;;13.70;99.90;;;;;;5029765;28;20524;-69
2023/10/19 05:45:49;;;;;;;12.13;6.27;;;13.60;99.90;;;;;;5026901;28;20427;-69
2023/10/19 05:48:35;;;;;;;12.40;6.83;;;13.50;99.90;;;;;;5038089;28;20419;-69
2023/10/19 05:51:22;;;;;;;7.87;6.53;;;13.50;99.90;;;;;;5035711;28;20450;-70
2023/10/19 05:54:08;;;;;;;8.40;6.10;;;13.40;99.90;;;;;;5035310;28;20419;-70
2023/10/19 05:56:53;;;;;;;15.03;13.40;;;13.40;99.90;;;;;;5026010;28;20898;-71
2023/10/19 05:59:39;;;;;;;7.10;6.10;;;13.40;99.90;;;;;;5035449;28;20419;-69
2023/10/19 06:02:25;;;;;;;11.37;5.43;;;13.40;99.90;;;;;;5034631;28;20456;-70
2023/10/19 06:05:11;;;;;;;8.27;6.07;;;13.30;99.90;;;;;;5030127;28;20412;-69
2023/10/19 06:07:59;;;;;;;5.67;4.83;;;13.30;99.90;;;;;;5029200;28;20404;-70
2023/10/19 06:10:52;;;;;;;6.83;5.17;;;13.30;99.90;;;;;;5026674;28;20489;-70
2023/10/19 06:13:38;;;;;;;7.43;5.67;;;13.20;99.90;;;;;;5025573;28;20425;-69
2023/10/19 06:16:23;;;;;;;10.07;6.30;;;13.20;99.90;;;;;;5030430;28;20800;-70
2023/10/19 06:19:09;;;;;;;6.80;5.30;;;13.20;99.90;;;;;;5025798;28;20452;-71
2023/10/19 06:21:54;;;;;;;7.53;6.00;;;13.20;99.90;;;;;;5028860;28;20543;-70
2023/10/19 06:24:41;;;;;;;13.43;5.00;;;13.10;99.90;;;;;;5032629;28;20461;-69
2023/10/19 06:27:27;;;;;;;8.32;5.90;;;13.20;99.90;;;;;;5027018;28;20851;-69
2023/10/19 06:30:17;;;;;;;8.43;5.60;;;13.20;99.90;;;;;;5032566;28;20329;-69
2023/10/19 06:33:02;;;;;;;5.93;5.03;;;13.30;99.90;;;;;;5030769;28;20431;-69
2023/10/19 06:35:48;;;;;;;6.63;5.10;;;13.30;99.90;;;;;;5030260;28;20456;-70
2023/10/19 06:38:34;;;;;;;9.87;5.70;;;13.30;99.90;;;;;;5031762;28;20418;-69
2023/10/19 06:41:21;;;;;;;6.60;5.57;;;13.40;99.90;;;;;;5029004;28;20439;-69
2023/10/19 06:44:07;;;;;;;6.60;5.20;;;13.50;99.90;;;;;;5029743;28;20509;-69
2023/10/19 06:46:52;;;;;;;7.57;5.73;;;13.50;99.90;;;;;;5028112;28;20445;-69
2023/10/19 06:49:38;;;;;;;9.00;4.87;;;13.50;99.90;;;;;;5031514;28;20417;-71
2023/10/19 06:52:24;;;;;;;11.90;6.17;;;13.60;99.90;;;;;;5015108;28;20406;-71
2023/10/19 06:55:14;;;;;;;14.30;5.80;;;13.70;99.90;;;;;;5020664;28;20428;-70
2023/10/19 06:58:01;;;;;;;11.40;4.87;;;13.70;99.90;;;;;;5028153;28;20418;-70
2023/10/19 07:00:56;;;;;;;5.43;4.80;;;13.80;99.90;;;;;;5020218;28;20443;-70
2023/10/19 07:03:41;;;;;;;8.13;5.43;;;13.90;99.90;;;;;;5024002;28;20528;-70
2023/10/19 07:06:27;;;;;;;7.33;6.00;;;14.10;99.90;;;;;;5023674;28;20431;-70
2023/10/19 07:09:13;;;;;;;7.93;6.43;;;14.20;99.90;;;;;;5023714;28;20422;-70
2023/10/19 07:12:00;;;;;;;11.63;7.00;;;14.30;99.90;;;;;;5027072;28;20410;-70
2023/10/19 07:14:48;;;;;;;7.80;6.03;;;14.30;99.90;;;;;;5023959;28;20503;-70
2023/10/19 07:17:34;;;;;;;9.10;6.87;;;14.40;99.90;;;;;;5027671;28;20419;-70
2023/10/19 07:20:25;;;;;;;7.80;5.90;;;14.50;99.90;;;;;;5024403;28;20476;-70
2023/10/19 07:23:18;;;;;;;8.40;5.80;;;14.50;99.90;;;;;;5025201;28;21048;-70
2023/10/19 07:26:03;;;;;;;7.50;5.93;;;14.60;99.90;;;;;;5025522;28;20428;-70
2023/10/19 07:28:50;;;;;;;14.47;7.87;;;14.60;99.90;;;;;;5026869;28;20523;-70
2023/10/19 07:31:37;;;;;;;7.40;6.60;;;14.70;99.90;;;;;;5021980;28;20395;-70
2023/10/19 07:34:25;;;;;;;12.60;6.57;;;14.80;99.90;;;;;;5026892;28;20391;-70
2023/10/19 07:37:14;;;;;;;10.13;7.00;;;14.90;99.90;;;;;;5026425;28;20916;-70
2023/10/19 07:40:00;;;;;;;14.10;6.70;;;14.90;99.90;;;;;;5029923;28;20408;-71
2023/10/19 07:42:46;;;;;;;11.10;6.60;;;15.00;99.90;;;;;;5029198;28;20406;-70
2023/10/19 07:45:34;;;;;;;10.43;7.67;;;15.00;99.90;;;;;;5022201;28;20403;-70
2023/10/19 07:48:21;;;;;;;13.83;8.07;;;15.10;99.90;;;;;;5019956;28;20420;-71
2023/10/19 07:51:07;;;;;;;10.17;7.40;;;15.10;99.90;;;;;;5025429;28;20411;-70
2023/10/19 07:53:53;;;;;;;9.20;6.83;;;15.20;99.90;;;;;;5019440;28;20497;-70
2023/10/19 07:56:39;;;;;;;10.57;7.50;;;15.20;99.90;;;;;;5030930;28;20995;-71
2023/10/19 07:59:24;;;;;;;11.23;6.70;;;15.30;99.90;;;;;;5036528;28;20784;-70
2023/10/19 08:02:10;;;;;;;9.20;6.37;;;15.30;99.90;;;;;;5031045;28;20407;-70
2023/10/19 08:04:57;;;;;;;10.53;6.73;;;15.30;99.90;;;;;;5023255;28;20496;-70
2023/10/19 08:07:43;;;;;;;10.23;7.73;;;15.30;99.90;;;;;;5029289;28;20440;-70
2023/10/19 08:10:29;;;;;;;9.30;6.23;;;15.30;99.90;;;;;;5032317;28;20779;-69
2023/10/19 08:13:15;;;;;;;9.77;6.43;;;15.40;99.90;;;;;;5028092;28;20423;-70
2023/10/19 08:16:00;;;;;;;8.40;6.73;;;15.40;99.90;;;;;;5027822;28;20858;-70
2023/10/19 08:18:46;;;;;;;26.20;6.10;;;15.40;99.90;;;;;;5024521;28;20439;-70
2023/10/19 08:21:34;;;;;;;14.63;8.37;;;15.50;99.90;;;;;;5029177;28;20974;-70
2023/10/19 08:24:20;;;;;;;19.83;6.43;;;15.50;99.90;;;;;;5026913;28;20460;-70
2023/10/19 08:27:06;;;;;;;8.60;5.70;;;15.60;99.90;;;;;;5028299;28;20451;-70
2023/10/19 08:29:52;;;;;;;11.90;7.20;;;15.60;99.90;;;;;;5029140;28;20475;-70
2023/10/19 08:32:38;;;;;;;12.63;6.37;;;15.70;99.90;;;;;;5027473;28;20424;-70
2023/10/19 08:35:25;;;;;;;9.83;6.00;;;15.80;99.90;;;;;;5026137;28;20863;-70
2023/10/19 08:38:12;;;;;;;15.30;7.47;;;15.80;99.90;;;;;;5031029;28;20833;-70
2023/10/19 08:40:58;;;;;;;6.80;5.47;;;15.90;99.90;;;;;;5021640;28;20792;-70
2023/10/19 08:43:44;;;;;;;6.67;5.30;;;15.90;99.90;;;;;;5027276;28;20531;-70
2023/10/19 08:46:30;;;;;;;8.37;5.10;;;16.00;99.90;;;;;;5020515;28;20468;-70
2023/10/19 08:49:16;;;;;;;10.33;5.73;;;16.10;99.90;;;;;;5029099;28;20432;-70
2023/10/19 08:52:04;;;;;;;18.83;5.30;;;16.30;99.90;;;;;;5030392;28;20821;-70
2023/10/19 08:54:51;;;;;;;10.53;6.10;;;16.30;99.90;;;;;;5031814;28;20420;-70
2023/10/19 08:57:38;;;;;;;11.93;4.70;;;16.40;99.90;;;;;;5022955;28;20455;-71
2023/10/19 09:00:24;;;;;;;5.57;4.10;;;16.60;99.90;;;;;;5028748;28;20442;-70
2023/10/19 09:03:13;;;;;;;9.43;4.40;;;16.60;99.90;;;;;;5029071;28;20453;-70
2023/10/19 09:06:02;;;;;;;12.20;3.57;;;16.60;99.90;;;;;;5029523;28;20793;-70
2023/10/19 09:08:49;;;;;;;5.00;3.27;;;16.60;99.90;;;;;;5032071;28;20415;-70
2023/10/19 09:11:35;;;;;;;14.50;3.53;;;16.70;99.90;;;;;;5027322;28;20442;-70
2023/10/19 09:14:33;;;;;;;6.90;3.30;;;16.70;99.90;;;;;;5023133;28;20827;-70
2023/10/19 09:17:29;;;;;;;5.37;2.63;;;16.80;99.90;;;;;;5029183;28;20822;-70
2023/10/19 09:20:25;;;;;;;14.43;3.23;;;16.90;99.90;;;;;;5030680;28;20450;-70
2023/10/19 09:23:10;;;;;;;6.30;3.10;;;16.90;99.90;;;;;;5028396;28;20454;-70
2023/10/19 09:25:58;;;;;;;9.53;2.40;;;17.00;99.90;;;;;;5026080;28;20465;-70
2023/10/19 09:28:48;;;;;;;6.63;2.90;;;17.10;99.90;;;;;;5026280;28;20436;-71
2023/10/19 09:31:35;;;;;;;7.13;2.90;;;17.20;99.90;;;;;;5023978;28;20469;-70
2023/10/19 09:34:21;;;;;;;7.50;3.10;;;17.30;99.90;;;;;;5026617;28;20517;-70
2023/10/19 09:37:08;;;;;;;15.40;2.60;;;17.30;99.90;;;;;;5029259;28;21089;-70
2023/10/19 09:39:54;;;;;;;10.00;3.40;;;17.40;99.90;;;;;;5028895;28;20977;-70
2023/10/19 09:42:45;;;;;;;7.83;2.70;;;17.50;99.90;;;;;;5026257;28;20944;-70
2023/10/19 09:45:42;;;;;;;7.30;2.80;;;17.50;99.90;;;;;;5025923;28;20461;-70
2023/10/19 09:48:29;;;;;;;6.07;2.83;;;17.70;99.90;;;;;;5026815;28;20998;-70
2023/10/19 09:51:16;;;;;;;6.70;3.00;;;17.70;99.90;;;;;;5024026;28;20450;-70
2023/10/19 09:54:09;;;;;;;7.27;3.13;;;17.80;99.90;;;;;;5025742;28;20591;-70
2023/10/19 09:57:02;;;;;;;5.27;3.00;;;18.00;99.90;;;;;;5071874;22;20563;-76
2023/10/19 09:59:55;;;;;;;5.20;2.67;;;18.10;99.90;;;;;;5091546;28;20443;-76
2023/10/19 10:02:45;;;;;;;3.70;2.60;;;18.20;99.90;;;;;;5095108;28;20541;-77
2023/10/19 10:05:49;;;;;;;3.73;2.60;;;18.40;99.90;;;;;;5091459;28;20444;-75
2023/10/19 10:08:37;;;;;;;4.43;2.67;;;18.40;99.90;;;;;;5067997;28;20507;-75
2023/10/19 10:11:26;;;;;;;4.00;2.37;;;18.50;99.90;;;;;;5078769;28;20473;-76
2023/10/19 10:14:24;;;;;;;4.70;3.00;;;18.60;99.90;;;;;;5068963;28;20464;-75
2023/10/19 10:17:18;;;;;;;4.37;2.97;;;18.70;99.90;;;;;;5084654;28;20447;-75
2023/10/19 10:20:34;;;;;;;5.57;2.30;;;18.80;99.90;;;;;;5067274;28;20427;-75
2023/10/19 10:23:24;;;;;;;5.53;3.03;;;18.90;99.90;;;;;;5072578;28;20480;-75
2023/10/19 10:26:11;;;;;;;8.43;2.60;;;19.00;99.90;;;;;;5080064;28;20503;-75
2023/10/19 10:29:11;;;;;;;4.50;2.60;;;19.10;99.90;;;;;;5079882;28;20430;-75
2023/10/19 10:31:59;;;;;;;6.40;3.27;;;19.10;99.90;;;;;;5081055;28;20526;-75
2023/10/19 10:34:45;;;;;;;3.60;2.40;;;18.90;99.90;;;;;;5081399;28;20483;-75
2023/10/19 10:37:33;;;;;;;6.07;3.63;;;18.90;99.90;;;;;;5077405;28;20560;-75
2023/10/19 10:40:20;;;;;;;9.57;2.90;;;18.90;99.90;;;;;;5080722;28;20675;-75
2023/10/19 10:43:07;;;;;;;5.73;3.20;;;18.80;99.90;;;;;;5079341;28;20484;-75
2023/10/19 10:45:52;;;;;;;4.80;2.40;;;18.80;99.90;;;;;;5073322;28;20921;-75
2023/10/19 10:48:42;;;;;;;7.43;3.07;;;18.60;99.90;;;;;;5072173;28;20401;-75
2023/10/19 10:51:29;;;;;;;4.07;2.40;;;18.50;99.90;;;;;;5074621;28;20402;-75
2023/10/19 10:54:22;;;;;;;8.30;3.33;;;18.40;99.90;;;;;;5077045;28;20416;-75
2023/10/19 10:57:09;;;;;;;6.30;2.80;;;18.40;99.90;;;;;;5084050;28;20453;-75
2023/10/19 11:00:15;;;;;;;7.50;3.73;;;18.40;99.90;;;;;;5084230;28;20421;-75
2023/10/19 11:03:03;;;;;;;4.83;3.00;;;18.40;99.90;;;;;;5085687;28;20435;-75
2023/10/19 11:05:49;;;;;;;6.27;3.00;;;18.40;99.90;;;;;;5077198;28;20447;-75
2023/10/19 11:08:36;;;;;;;5.50;3.23;;;18.30;99.90;;;;;;5080536;28;20431;-75
2023/10/19 11:11:23;;;;;;;4.60;2.83;;;18.20;99.90;;;;;;5078791;28;20813;-75
2023/10/19 11:14:12;;;;;;;5.37;2.63;;;18.10;99.90;;;;;;5082541;28;20435;-75
2023/10/19 11:17:13;;;;;;;5.87;3.10;;;18.00;99.90;;;;;;5079772;28;20457;-75
2023/10/19 11:19:59;;;;;;;4.40;2.37;;;18.00;99.90;;;;;;5075755;28;20797;-75
2023/10/19 11:22:50;;;;;;;7.67;2.63;;;18.00;99.90;;;;;;5072233;28;20399;-75
2023/10/19 11:25:35;;;;;;;3.80;2.53;;;17.90;99.90;;;;;;5073355;28;20472;-75
2023/10/19 11:28:22;;;;;;;5.17;2.27;;;17.90;99.90;;;;;;5082026;28;20470;-75
2023/10/19 11:31:13;;;;;;;5.07;2.57;;;17.90;99.90;;;;;;5079955;28;20692;-75
2023/10/19 11:33:59;;;;;;;6.17;2.70;;;17.80;99.90;;;;;;5085330;28;20431;-76
2023/10/19 11:36:44;;;;;;;4.00;2.60;;;17.80;99.90;;;;;;5089371;28;20451;-75
2023/10/19 11:39:31;;;;;;;4.90;2.43;;;17.80;99.90;;;;;;5085049;28;20426;-75
2023/10/19 11:42:18;;;;;;;7.33;2.77;;;17.80;99.90;;;;;;5088257;28;20410;-75
2023/10/19 11:45:06;;;;;;;6.30;2.90;;;17.80;99.90;;;;;;5078978;28;20528;-75
2023/10/19 11:47:52;;;;;;;3.67;2.50;;;17.80;99.90;;;;;;5082901;28;20538;-75
2023/10/19 11:50:37;;;;;;;4.40;2.50;;;17.70;99.90;;;;;;5087758;28;20919;-75
2023/10/19 11:53:23;;;;;;;5.77;2.73;;;17.70;99.90;;;;;;5082427;28;20423;-76
2023/10/19 11:56:12;;;;;;;3.80;2.40;;;17.60;99.90;;;;;;5077666;28;20482;-75
2023/10/19 11:58:57;;;;;;;4.77;2.80;;;17.60;99.90;;;;;;5076549;28;20431;-75
2023/10/19 12:01:44;;;;;;;5.17;2.60;;;17.60;99.90;;;;;;5079074;28;20407;-75
2023/10/19 12:04:32;;;;;;;6.33;2.73;;;17.60;99.90;;;;;;5081432;28;20978;-75
2023/10/19 12:07:18;;;;;;;3.70;2.30;;;17.50;99.90;;;;;;5081629;28;20855;-75
2023/10/19 12:10:05;;;;;;;6.97;3.20;;;17.50;99.90;;;;;;5089125;28;20474;-75
2023/10/19 12:12:51;;;;;;;5.50;2.73;;;17.50;99.90;;;;;;5083113;28;21030;-75
2023/10/19 12:15:36;;;;;;;10.37;3.20;;;17.50;99.90;;;;;;5080014;28;20436;-75
2023/10/19 12:18:25;;;;;;;6.53;2.23;;;17.50;99.90;;;;;;5076567;28;20485;-75
2023/10/19 12:21:12;;;;;;;4.40;2.70;;;17.40;99.90;;;;;;5087981;28;20402;-75
2023/10/19 12:23:59;;;;;;;7.13;2.97;;;17.30;99.90;;;;;;5073593;28;20427;-75
2023/10/19 12:26:46;;;;;;;5.30;2.93;;;17.30;99.90;;;;;;5067820;28;20446;-75
2023/10/19 12:29:32;;;;;;;6.87;2.63;;;17.20;99.90;;;;;;5076933;28;20443;-75
2023/10/19 12:32:18;;;;;;;7.17;2.90;;;17.20;99.90;;;;;;5068464;28;20396;-75
2023/10/19 12:35:11;;;;;;;3.90;2.80;;;17.20;99.90;;;;;;5075105;28;20429;-75
2023/10/19 12:37:57;;;;;;;4.83;2.83;;;17.10;99.90;;;;;;5075032;28;20449;-75
2023/10/19 12:40:46;;;;;;;6.47;3.10;;;17.10;99.90;;;;;;5073384;28;20550;-75
2023/10/19 12:43:33;;;;;;;5.33;2.80;;;17.10;99.90;;;;;;5080869;28;20784;-76
2023/10/19 12:46:21;;;;;;;5.50;2.83;;;17.00;99.90;;;;;;5079703;28;20996;-75
2023/10/19 12:49:08;;;;;;;10.10;3.20;;;17.00;99.90;;;;;;5083669;28;20928;-76
2023/10/19 12:51:55;;;;;;;6.23;2.90;;;17.00;99.90;;;;;;5082170;28;20442;-76
2023/10/19 12:54:43;;;;;;;4.53;3.10;;;17.00;99.90;;;;;;5075508;28;20420;-76
2023/10/19 12:57:29;;;;;;;4.60;3.40;;;17.00;99.90;;;;;;5074108;28;20433;-75
2023/10/19 13:00:25;;;;;;;5.00;3.30;;;17.00;99.90;;;;;;5086957;28;20932;-75
2023/10/19 13:03:15;;;;;;;5.90;3.53;;;17.00;99.90;;;;;;5079171;28;20454;-75
2023/10/19 13:06:04;;;;;;;5.23;3.40;;;17.10;99.90;;;;;;5075726;28;21054;-76
2023/10/19 13:08:52;;;;;;;5.63;3.73;;;17.10;99.90;;;;;;5069717;28;20443;-75
2023/10/19 13:11:38;;;;;;;9.63;3.70;;;17.10;99.90;;;;;;5081019;28;20459;-75
2023/10/19 13:14:24;;;;;;;8.50;3.87;;;17.10;99.90;;;;;;5063252;28;20416;-75
2023/10/19 13:17:09;;;;;;;6.90;4.10;;;17.10;99.90;;;;;;5076874;28;20445;-75
2023/10/19 13:19:58;;;;;;;15.20;6.30;;;17.10;99.90;;;;;;5078867;28;20465;-75
2023/10/19 13:22:44;;;;;;;6.07;5.40;;;17.10;99.90;;;;;;5083400;28;20774;-75
2023/10/19 13:25:46;;;;;;;8.90;6.73;;;17.10;99.90;;;;;;5085997;28;20535;-75
2023/10/19 13:28:32;;;;;;;11.83;7.27;;;17.10;99.90;;;;;;5080421;28;20976;-75
2023/10/19 13:31:19;;;;;;;9.33;7.20;;;17.10;99.90;;;;;;5061561;28;20446;-76
2023/10/19 13:34:10;;;;;;;14.30;7.47;;;17.00;99.90;;;;;;5084504;28;20412;-76
2023/10/19 13:36:57;;;;;;;9.50;7.93;;;17.00;99.90;;;;;;5082035;28;20423;-75
2023/10/19 13:39:42;;;;;;;12.77;9.03;;;17.10;99.90;;;;;;5077356;28;20409;-76
2023/10/19 13:42:29;;;;;;;10.37;7.77;;;17.00;99.90;;;;;;5078362;28;20497;-75
2023/10/19 13:45:15;;;;;;;10.27;7.80;;;17.00;99.90;;;;;;5078737;28;20680;-75
2023/10/19 13:48:02;;;;;;;14.60;7.83;;;17.00;99.90;;;;;;5078131;28;20806;-76
2023/10/19 13:50:49;;;;;;;9.83;8.50;;;17.10;99.90;;;;;;5076930;28;20394;-75
2023/10/19 13:53:35;;;;;;;13.60;9.13;;;17.00;99.90;;;;;;5080430;28;20431;-75
2023/10/19 13:56:20;;;;;;;13.30;8.80;;;17.10;99.90;;;;;;5086556;28;20506;-75
2023/10/19 13:59:08;;;;;;;11.63;8.70;;;17.00;99.90;;;;;;5084983;28;20452;-75
2023/10/19 14:01:53;;;;;;;13.00;9.50;;;17.10;99.90;;;;;;5083382;28;21019;-75
2023/10/19 14:04:39;;;;;;;16.03;8.43;;;17.10;99.90;;;;;;5078084;28;20425;-75
2023/10/19 14:07:24;;;;;;;10.43;8.77;;;17.00;99.90;;;;;;5075127;28;21067;-75
2023/10/19 14:10:12;;;;;;;10.50;8.73;;;17.00;99.90;;;;;;5086188;28;20480;-75
2023/10/19 14:12:58;;;;;;;11.60;9.53;;;17.10;99.90;;;;;;5078415;28;20490;-74
2023/10/19 14:15:45;;;;;;;12.27;9.10;;;17.00;99.90;;;;;;5087356;28;20403;-75
2023/10/19 14:18:31;;;;;;;11.63;8.10;;;17.00;99.90;;;;;;5083171;28;20386;-75
2023/10/19 14:21:20;;;;;;;10.40;8.10;;;17.10;99.90;;;;;;5084867;28;20510;-75
2023/10/19 14:24:08;;;;;;;16.20;8.90;;;17.10;99.90;;;;;;5078468;28;20429;-76
2023/10/19 14:26:54;;;;;;;14.60;8.40;;;17.10;99.90;;;;;;5087153;28;21027;-75
2023/10/19 14:29:39;;;;;;;13.47;8.50;;;17.10;99.90;;;;;;5081698;28;20899;-75